sensor_id;sensor_type;location;lat;lon;timestamp;P1;durP1;ratioP1;P2;durP2;ratioP2
1467;SDS011;727;48.892;9.544;2023-11-19T00:00:46;13.25;;;9.43;;
1467;SDS011;727;48.892;9.544;2023-11-19T00:03:14;11.70;;;8.80;;
1467;SDS011;727;48.892;9.544;2023-11-19T00:05:41;24.65;;;16.08;;
1467;SDS011;727;48.892;9.544;2023-11-19T00:08:07;17.65;;;9.48;;
1467;SDS011;727;48.892;9.544;2023-11-19T00:10:34;16.63;;;11.30;;
1467;SDS011;727;48.892;9.544;2023-11-19T00:13:01;17.25;;;12.65;;
1467;SDS011;727;48.892;9.544;2023-11-19T00:15:29;13.23;;;9.60;;
1467;SDS011;727;48.892;9.544;2023-11-19T00:17:56;8.95;;;7.93;;
1467;SDS011;727;48.892;9.544;2023-11-19T00:20:24;8.43;;;7.63;;
1467;SDS011;727;48.892;9.544;2023-11-19T00:22:50;8.85;;;7.05;;
1467;SDS011;727;48.892;9.544;2023-11-19T00:25:17;7.10;;;6.18;;
1467;SDS011;727;48.892;9.544;2023-11-19T00:27:45;8.18;;;6.88;;
1467;SDS011;727;48.892;9.544;2023-11-19T00:30:12;6.60;;;5.57;;
1467;SDS011;727;48.892;9.544;2023-11-19T00:32:39;7.10;;;6.47;;
1467;SDS011;727;48.892;9.544;2023-11-19T00:35:07;8.13;;;7.15;;
1467;SDS011;727;48.892;9.544;2023-11-19T00:37:36;8.10;;;6.93;;
1467;SDS011;727;48.892;9.544;2023-11-19T00:40:03;8.25;;;6.68;;
1467;SDS011;727;48.892;9.544;2023-11-19T00:42:31;6.93;;;6.32;;
1467;SDS011;727;48.892;9.544;2023-11-19T00:44:58;6.93;;;6.22;;
1467;SDS011;727;48.892;9.544;2023-11-19T00:47:26;8.30;;;6.80;;
1467;SDS011;727;48.892;9.544;2023-11-19T00:49:53;8.35;;;6.03;;
1467;SDS011;727;48.892;9.544;2023-11-19T00:52:19;11.20;;;6.55;;
1467;SDS011;727;48.892;9.544;2023-11-19T00:54:48;6.70;;;6.00;;
1467;SDS011;727;48.892;9.544;2023-11-19T00:57:16;8.90;;;7.05;;
1467;SDS011;727;48.892;9.544;2023-11-19T00:59:42;9.55;;;6.68;;
1467;SDS011;727;48.892;9.544;2023-11-19T01:02:09;6.00;;;5.40;;
1467;SDS011;727;48.892;9.544;2023-11-19T01:04:36;10.27;;;6.60;;
1467;SDS011;727;48.892;9.544;2023-11-19T01:07:04;6.93;;;6.35;;
1467;SDS011;727;48.892;9.544;2023-11-19T01:09:31;6.35;;;5.63;;
1467;SDS011;727;48.892;9.544;2023-11-19T01:12:01;6.70;;;6.10;;
1467;SDS011;727;48.892;9.544;2023-11-19T01:14:29;6.93;;;6.22;;
1467;SDS011;727;48.892;9.544;2023-11-19T01:16:55;8.63;;;7.18;;
1467;SDS011;727;48.892;9.544;2023-11-19T01:19:22;8.88;;;7.00;;
1467;SDS011;727;48.892;9.544;2023-11-19T01:21:49;8.80;;;6.75;;
1467;SDS011;727;48.892;9.544;2023-11-19T01:24:16;9.27;;;7.88;;
1467;SDS011;727;48.892;9.544;2023-11-19T01:26:43;13.15;;;8.25;;
1467;SDS011;727;48.892;9.544;2023-11-19T01:29:12;10.80;;;7.85;;
1467;SDS011;727;48.892;9.544;2023-11-19T01:31:39;13.68;;;10.13;;
1467;SDS011;727;48.892;9.544;2023-11-19T01:34:06;13.60;;;9.27;;
1467;SDS011;727;48.892;9.544;2023-11-19T01:36:33;21.05;;;11.07;;
1467;SDS011;727;48.892;9.544;2023-11-19T01:39:00;17.20;;;10.95;;
1467;SDS011;727;48.892;9.544;2023-11-19T01:41:28;11.55;;;8.15;;
1467;SDS011;727;48.892;9.544;2023-11-19T01:43:55;10.93;;;9.13;;
1467;SDS011;727;48.892;9.544;2023-11-19T01:46:23;9.65;;;8.50;;
1467;SDS011;727;48.892;9.544;2023-11-19T01:48:51;10.00;;;7.28;;
1467;SDS011;727;48.892;9.544;2023-11-19T01:51:19;8.05;;;7.30;;
1467;SDS011;727;48.892;9.544;2023-11-19T01:53:47;8.88;;;7.63;;
1467;SDS011;727;48.892;9.544;2023-11-19T01:56:15;15.38;;;8.55;;
1467;SDS011;727;48.892;9.544;2023-11-19T01:58:42;10.98;;;8.20;;
1467;SDS011;727;48.892;9.544;2023-11-19T02:01:11;8.95;;;7.05;;
1467;SDS011;727;48.892;9.544;2023-11-19T02:03:39;17.55;;;7.22;;
1467;SDS011;727;48.892;9.544;2023-11-19T02:06:06;10.93;;;7.43;;
1467;SDS011;727;48.892;9.544;2023-11-19T02:08:35;6.95;;;6.35;;
1467;SDS011;727;48.892;9.544;2023-11-19T02:11:02;7.70;;;6.53;;
1467;SDS011;727;48.892;9.544;2023-11-19T02:13:29;8.70;;;6.55;;
1467;SDS011;727;48.892;9.544;2023-11-19T02:15:56;10.68;;;6.53;;
1467;SDS011;727;48.892;9.544;2023-11-19T02:18:25;9.15;;;7.82;;
1467;SDS011;727;48.892;9.544;2023-11-19T02:20:54;6.60;;;6.00;;
1467;SDS011;727;48.892;9.544;2023-11-19T02:23:21;7.50;;;6.35;;
1467;SDS011;727;48.892;9.544;2023-11-19T02:25:53;5.78;;;5.15;;
1467;SDS011;727;48.892;9.544;2023-11-19T02:28:29;8.23;;;6.53;;
1467;SDS011;727;48.892;9.544;2023-11-19T02:30:56;6.78;;;6.15;;
1467;SDS011;727;48.892;9.544;2023-11-19T02:33:23;8.88;;;7.25;;
1467;SDS011;727;48.892;9.544;2023-11-19T02:35:49;7.93;;;6.35;;
1467;SDS011;727;48.892;9.544;2023-11-19T02:38:17;11.65;;;7.43;;
1467;SDS011;727;48.892;9.544;2023-11-19T02:40:43;9.95;;;7.32;;
1467;SDS011;727;48.892;9.544;2023-11-19T02:43:10;10.27;;;8.00;;
1467;SDS011;727;48.892;9.544;2023-11-19T02:45:39;8.40;;;6.97;;
1467;SDS011;727;48.892;9.544;2023-11-19T02:48:07;6.70;;;5.25;;
1467;SDS011;727;48.892;9.544;2023-11-19T02:50:34;5.85;;;5.32;;
1467;SDS011;727;48.892;9.544;2023-11-19T02:53:02;8.75;;;5.40;;
1467;SDS011;727;48.892;9.544;2023-11-19T02:55:29;8.93;;;6.82;;
1467;SDS011;727;48.892;9.544;2023-11-19T02:58:01;10.10;;;7.22;;
1467;SDS011;727;48.892;9.544;2023-11-19T03:00:33;10.55;;;8.40;;
1467;SDS011;727;48.892;9.544;2023-11-19T03:03:03;6.90;;;5.97;;
1467;SDS011;727;48.892;9.544;2023-11-19T03:05:42;8.23;;;5.95;;
1467;SDS011;727;48.892;9.544;2023-11-19T03:08:10;7.35;;;5.50;;
1467;SDS011;727;48.892;9.544;2023-11-19T03:10:37;7.63;;;6.25;;
1467;SDS011;727;48.892;9.544;2023-11-19T03:13:04;9.25;;;5.95;;
1467;SDS011;727;48.892;9.544;2023-11-19T03:15:32;6.53;;;5.93;;
1467;SDS011;727;48.892;9.544;2023-11-19T03:17:59;6.13;;;4.45;;
1467;SDS011;727;48.892;9.544;2023-11-19T03:20:27;7.32;;;6.55;;
1467;SDS011;727;48.892;9.544;2023-11-19T03:22:55;7.47;;;6.78;;
1467;SDS011;727;48.892;9.544;2023-11-19T03:25:24;9.00;;;7.82;;
1467;SDS011;727;48.892;9.544;2023-11-19T03:27:52;10.50;;;7.82;;
1467;SDS011;727;48.892;9.544;2023-11-19T03:30:19;10.20;;;6.80;;
1467;SDS011;727;48.892;9.544;2023-11-19T03:32:46;8.30;;;7.00;;
1467;SDS011;727;48.892;9.544;2023-11-19T03:35:12;8.27;;;7.40;;
1467;SDS011;727;48.892;9.544;2023-11-19T03:37:40;10.95;;;8.43;;
1467;SDS011;727;48.892;9.544;2023-11-19T03:40:08;11.57;;;10.05;;
1467;SDS011;727;48.892;9.544;2023-11-19T03:42:36;16.40;;;12.13;;
1467;SDS011;727;48.892;9.544;2023-11-19T03:45:05;13.90;;;10.60;;
1467;SDS011;727;48.892;9.544;2023-11-19T03:47:33;15.85;;;12.43;;
1467;SDS011;727;48.892;9.544;2023-11-19T03:50:00;20.25;;;12.15;;
1467;SDS011;727;48.892;9.544;2023-11-19T03:52:27;14.35;;;11.05;;
1467;SDS011;727;48.892;9.544;2023-11-19T03:54:56;11.57;;;9.55;;
1467;SDS011;727;48.892;9.544;2023-11-19T03:57:23;11.90;;;8.90;;
1467;SDS011;727;48.892;9.544;2023-11-19T03:59:50;11.77;;;10.60;;
1467;SDS011;727;48.892;9.544;2023-11-19T04:02:17;12.40;;;10.13;;
1467;SDS011;727;48.892;9.544;2023-11-19T04:04:44;11.50;;;10.30;;
1467;SDS011;727;48.892;9.544;2023-11-19T04:07:10;11.60;;;10.18;;
1467;SDS011;727;48.892;9.544;2023-11-19T04:09:37;15.48;;;11.20;;
1467;SDS011;727;48.892;9.544;2023-11-19T04:12:06;15.93;;;11.95;;
1467;SDS011;727;48.892;9.544;2023-11-19T04:14:33;15.23;;;11.77;;
1467;SDS011;727;48.892;9.544;2023-11-19T04:16:59;16.02;;;12.98;;
1467;SDS011;727;48.892;9.544;2023-11-19T04:19:27;15.15;;;12.13;;
1467;SDS011;727;48.892;9.544;2023-11-19T04:21:54;12.40;;;11.23;;
1467;SDS011;727;48.892;9.544;2023-11-19T04:24:21;15.75;;;11.07;;
1467;SDS011;727;48.892;9.544;2023-11-19T04:26:47;14.73;;;12.02;;
1467;SDS011;727;48.892;9.544;2023-11-19T04:29:16;12.25;;;10.95;;
1467;SDS011;727;48.892;9.544;2023-11-19T04:31:43;13.23;;;10.70;;
1467;SDS011;727;48.892;9.544;2023-11-19T04:34:10;14.68;;;10.45;;
1467;SDS011;727;48.892;9.544;2023-11-19T04:36:37;12.25;;;11.15;;
1467;SDS011;727;48.892;9.544;2023-11-19T04:39:05;11.95;;;10.70;;
1467;SDS011;727;48.892;9.544;2023-11-19T04:41:34;16.33;;;11.40;;
1467;SDS011;727;48.892;9.544;2023-11-19T04:44:01;12.65;;;11.32;;
1467;SDS011;727;48.892;9.544;2023-11-19T04:46:29;12.10;;;10.85;;
1467;SDS011;727;48.892;9.544;2023-11-19T04:48:56;13.85;;;12.23;;
1467;SDS011;727;48.892;9.544;2023-11-19T04:51:23;12.23;;;11.02;;
1467;SDS011;727;48.892;9.544;2023-11-19T04:53:49;14.90;;;13.00;;
1467;SDS011;727;48.892;9.544;2023-11-19T04:56:16;12.75;;;11.55;;
1467;SDS011;727;48.892;9.544;2023-11-19T04:58:44;20.88;;;14.43;;
1467;SDS011;727;48.892;9.544;2023-11-19T05:01:13;14.30;;;12.82;;
1467;SDS011;727;48.892;9.544;2023-11-19T05:03:43;13.05;;;11.75;;
1467;SDS011;727;48.892;9.544;2023-11-19T05:06:10;13.65;;;11.95;;
1467;SDS011;727;48.892;9.544;2023-11-19T05:08:37;13.80;;;11.93;;
1467;SDS011;727;48.892;9.544;2023-11-19T05:11:04;13.65;;;11.93;;
1467;SDS011;727;48.892;9.544;2023-11-19T05:13:31;14.63;;;13.15;;
1467;SDS011;727;48.892;9.544;2023-11-19T05:15:58;14.20;;;12.80;;
1467;SDS011;727;48.892;9.544;2023-11-19T05:18:25;13.05;;;11.77;;
1467;SDS011;727;48.892;9.544;2023-11-19T05:20:53;13.73;;;12.43;;
1467;SDS011;727;48.892;9.544;2023-11-19T05:23:19;13.70;;;12.32;;
1467;SDS011;727;48.892;9.544;2023-11-19T05:25:46;12.98;;;11.57;;
1467;SDS011;727;48.892;9.544;2023-11-19T05:28:13;12.43;;;10.85;;
1467;SDS011;727;48.892;9.544;2023-11-19T05:30:40;12.35;;;11.05;;
1467;SDS011;727;48.892;9.544;2023-11-19T05:33:07;9.63;;;8.60;;
1467;SDS011;727;48.892;9.544;2023-11-19T05:35:34;10.15;;;9.25;;
1467;SDS011;727;48.892;9.544;2023-11-19T05:38:02;9.23;;;8.27;;
1467;SDS011;727;48.892;9.544;2023-11-19T05:40:31;8.52;;;7.82;;
1467;SDS011;727;48.892;9.544;2023-11-19T05:42:57;7.85;;;7.15;;
1467;SDS011;727;48.892;9.544;2023-11-19T05:45:24;6.95;;;6.13;;
1467;SDS011;727;48.892;9.544;2023-11-19T05:47:51;6.72;;;6.13;;
1467;SDS011;727;48.892;9.544;2023-11-19T05:50:18;5.45;;;4.90;;
1467;SDS011;727;48.892;9.544;2023-11-19T05:52:45;6.25;;;4.90;;
1467;SDS011;727;48.892;9.544;2023-11-19T05:55:14;6.22;;;4.95;;
1467;SDS011;727;48.892;9.544;2023-11-19T05:57:40;4.65;;;4.25;;
1467;SDS011;727;48.892;9.544;2023-11-19T06:00:07;9.73;;;4.25;;
1467;SDS011;727;48.892;9.544;2023-11-19T06:02:38;6.72;;;6.13;;
1467;SDS011;727;48.892;9.544;2023-11-19T06:05:05;8.05;;;6.28;;
1467;SDS011;727;48.892;9.544;2023-11-19T06:07:32;7.20;;;6.50;;
1467;SDS011;727;48.892;9.544;2023-11-19T06:10:00;6.72;;;6.07;;
1467;SDS011;727;48.892;9.544;2023-11-19T06:12:29;4.80;;;4.32;;
1467;SDS011;727;48.892;9.544;2023-11-19T06:14:57;3.70;;;3.40;;
1467;SDS011;727;48.892;9.544;2023-11-19T06:17:23;5.30;;;4.35;;
1467;SDS011;727;48.892;9.544;2023-11-19T06:19:50;6.72;;;3.60;;
1467;SDS011;727;48.892;9.544;2023-11-19T06:22:17;5.38;;;3.47;;
1467;SDS011;727;48.892;9.544;2023-11-19T06:24:44;3.70;;;2.90;;
1467;SDS011;727;48.892;9.544;2023-11-19T06:27:10;3.80;;;3.50;;
1467;SDS011;727;48.892;9.544;2023-11-19T06:29:39;5.95;;;5.35;;
1467;SDS011;727;48.892;9.544;2023-11-19T06:32:06;8.70;;;8.02;;
1467;SDS011;727;48.892;9.544;2023-11-19T06:34:33;6.50;;;6.00;;
1467;SDS011;727;48.892;9.544;2023-11-19T06:37:00;6.75;;;6.05;;
1467;SDS011;727;48.892;9.544;2023-11-19T06:39:28;10.43;;;6.70;;
1467;SDS011;727;48.892;9.544;2023-11-19T06:41:54;6.97;;;6.38;;
1467;SDS011;727;48.892;9.544;2023-11-19T06:44:21;5.78;;;5.28;;
1467;SDS011;727;48.892;9.544;2023-11-19T06:46:51;5.13;;;4.72;;
1467;SDS011;727;48.892;9.544;2023-11-19T06:49:18;4.25;;;3.85;;
1467;SDS011;727;48.892;9.544;2023-11-19T06:51:45;3.85;;;3.58;;
1467;SDS011;727;48.892;9.544;2023-11-19T06:54:12;6.60;;;4.47;;
1467;SDS011;727;48.892;9.544;2023-11-19T06:56:39;4.35;;;3.90;;
1467;SDS011;727;48.892;9.544;2023-11-19T06:59:06;4.90;;;4.50;;
1467;SDS011;727;48.892;9.544;2023-11-19T07:01:34;4.72;;;4.32;;
1467;SDS011;727;48.892;9.544;2023-11-19T07:04:02;5.30;;;4.53;;
1467;SDS011;727;48.892;9.544;2023-11-19T07:06:34;4.80;;;4.43;;
1467;SDS011;727;48.892;9.544;2023-11-19T07:09:01;5.00;;;4.60;;
1467;SDS011;727;48.892;9.544;2023-11-19T07:11:34;5.68;;;5.22;;
1467;SDS011;727;48.892;9.544;2023-11-19T07:14:01;6.13;;;5.57;;
1467;SDS011;727;48.892;9.544;2023-11-19T07:16:29;6.38;;;5.88;;
1467;SDS011;727;48.892;9.544;2023-11-19T07:18:55;5.70;;;5.25;;
1467;SDS011;727;48.892;9.544;2023-11-19T07:21:25;5.10;;;4.70;;
1467;SDS011;727;48.892;9.544;2023-11-19T07:23:52;5.10;;;4.65;;
1467;SDS011;727;48.892;9.544;2023-11-19T07:26:19;5.10;;;4.70;;
1467;SDS011;727;48.892;9.544;2023-11-19T07:28:46;5.90;;;5.40;;
1467;SDS011;727;48.892;9.544;2023-11-19T07:31:13;4.65;;;3.35;;
1467;SDS011;727;48.892;9.544;2023-11-19T07:33:40;1.77;;;1.67;;
1467;SDS011;727;48.892;9.544;2023-11-19T07:36:08;3.27;;;1.90;;
1467;SDS011;727;48.892;9.544;2023-11-19T07:38:36;1.53;;;1.43;;
1467;SDS011;727;48.892;9.544;2023-11-19T07:41:04;1.90;;;1.80;;
1467;SDS011;727;48.892;9.544;2023-11-19T07:43:32;2.60;;;2.40;;
1467;SDS011;727;48.892;9.544;2023-11-19T07:45:59;4.93;;;4.00;;
1467;SDS011;727;48.892;9.544;2023-11-19T07:48:26;3.20;;;1.65;;
1467;SDS011;727;48.892;9.544;2023-11-19T07:50:53;1.60;;;1.50;;
1467;SDS011;727;48.892;9.544;2023-11-19T07:53:20;1.70;;;1.60;;
1467;SDS011;727;48.892;9.544;2023-11-19T07:55:48;3.67;;;3.43;;
1467;SDS011;727;48.892;9.544;2023-11-19T07:58:15;6.17;;;5.67;;
1467;SDS011;727;48.892;9.544;2023-11-19T08:00:42;5.43;;;4.93;;
1467;SDS011;727;48.892;9.544;2023-11-19T08:03:09;10.93;;;10.17;;
1467;SDS011;727;48.892;9.544;2023-11-19T08:05:36;9.43;;;8.83;;
1467;SDS011;727;48.892;9.544;2023-11-19T08:08:04;8.37;;;7.67;;
1467;SDS011;727;48.892;9.544;2023-11-19T08:10:31;12.20;;;11.30;;
1467;SDS011;727;48.892;9.544;2023-11-19T08:12:59;9.87;;;8.97;;
1467;SDS011;727;48.892;9.544;2023-11-19T08:15:26;10.53;;;9.20;;
1467;SDS011;727;48.892;9.544;2023-11-19T08:17:55;30.83;;;19.70;;
1467;SDS011;727;48.892;9.544;2023-11-19T08:20:22;14.00;;;11.23;;
1467;SDS011;727;48.892;9.544;2023-11-19T08:22:49;7.70;;;5.60;;
1467;SDS011;727;48.892;9.544;2023-11-19T08:25:17;5.00;;;4.50;;
1467;SDS011;727;48.892;9.544;2023-11-19T08:27:43;10.10;;;8.50;;
1467;SDS011;727;48.892;9.544;2023-11-19T08:30:13;9.33;;;7.90;;
1467;SDS011;727;48.892;9.544;2023-11-19T08:32:40;4.10;;;2.87;;
1467;SDS011;727;48.892;9.544;2023-11-19T08:35:07;4.80;;;3.20;;
1467;SDS011;727;48.892;9.544;2023-11-19T08:37:35;10.27;;;8.10;;
1467;SDS011;727;48.892;9.544;2023-11-19T08:40:03;19.73;;;12.93;;
1467;SDS011;727;48.892;9.544;2023-11-19T08:42:32;13.10;;;11.80;;
1467;SDS011;727;48.892;9.544;2023-11-19T08:44:59;8.43;;;7.63;;
1467;SDS011;727;48.892;9.544;2023-11-19T08:47:27;6.30;;;5.70;;
1467;SDS011;727;48.892;9.544;2023-11-19T08:49:54;4.80;;;4.40;;
1467;SDS011;727;48.892;9.544;2023-11-19T08:52:20;2.43;;;2.33;;
1467;SDS011;727;48.892;9.544;2023-11-19T08:54:47;2.00;;;1.90;;
1467;SDS011;727;48.892;9.544;2023-11-19T08:57:14;1.63;;;1.53;;
1467;SDS011;727;48.892;9.544;2023-11-19T08:59:41;2.00;;;1.80;;
1467;SDS011;727;48.892;9.544;2023-11-19T09:02:10;3.40;;;1.70;;
1467;SDS011;727;48.892;9.544;2023-11-19T09:04:38;2.47;;;1.77;;
1467;SDS011;727;48.892;9.544;2023-11-19T09:07:05;6.50;;;2.37;;
1467;SDS011;727;48.892;9.544;2023-11-19T09:09:34;4.07;;;2.90;;
1467;SDS011;727;48.892;9.544;2023-11-19T09:12:06;3.93;;;3.40;;
1467;SDS011;727;48.892;9.544;2023-11-19T09:14:33;3.70;;;3.40;;
1467;SDS011;727;48.892;9.544;2023-11-19T09:17:00;4.53;;;3.60;;
1467;SDS011;727;48.892;9.544;2023-11-19T09:19:27;4.07;;;3.67;;
1467;SDS011;727;48.892;9.544;2023-11-19T09:21:55;4.20;;;3.90;;
1467;SDS011;727;48.892;9.544;2023-11-19T09:24:22;3.70;;;3.03;;
1467;SDS011;727;48.892;9.544;2023-11-19T09:26:48;1.60;;;1.50;;
1467;SDS011;727;48.892;9.544;2023-11-19T09:29:15;9.23;;;1.90;;
1467;SDS011;727;48.892;9.544;2023-11-19T09:31:42;2.37;;;2.10;;
1467;SDS011;727;48.892;9.544;2023-11-19T09:34:09;3.17;;;2.30;;
1467;SDS011;727;48.892;9.544;2023-11-19T09:36:35;7.27;;;6.57;;
1467;SDS011;727;48.892;9.544;2023-11-19T09:39:03;2.10;;;2.00;;
1467;SDS011;727;48.892;9.544;2023-11-19T09:41:33;2.60;;;2.20;;
1467;SDS011;727;48.892;9.544;2023-11-19T09:43:59;1.80;;;1.70;;
1467;SDS011;727;48.892;9.544;2023-11-19T09:46:26;1.70;;;1.60;;
1467;SDS011;727;48.892;9.544;2023-11-19T09:48:54;2.17;;;2.00;;
1467;SDS011;727;48.892;9.544;2023-11-19T09:51:24;2.07;;;1.87;;
1467;SDS011;727;48.892;9.544;2023-11-19T09:53:51;2.97;;;2.47;;
1467;SDS011;727;48.892;9.544;2023-11-19T09:56:19;3.30;;;3.10;;
1467;SDS011;727;48.892;9.544;2023-11-19T09:58:47;2.00;;;1.90;;
1467;SDS011;727;48.892;9.544;2023-11-19T10:01:14;1.97;;;1.67;;
1467;SDS011;727;48.892;9.544;2023-11-19T10:03:41;7.70;;;2.90;;
1467;SDS011;727;48.892;9.544;2023-11-19T10:06:09;3.77;;;3.47;;
1467;SDS011;727;48.892;9.544;2023-11-19T10:08:37;4.00;;;3.57;;
1467;SDS011;727;48.892;9.544;2023-11-19T10:11:05;5.83;;;3.30;;
1467;SDS011;727;48.892;9.544;2023-11-19T10:13:33;2.80;;;2.60;;
1467;SDS011;727;48.892;9.544;2023-11-19T10:16:04;2.63;;;2.43;;
1467;SDS011;727;48.892;9.544;2023-11-19T10:18:34;3.77;;;2.30;;
1467;SDS011;727;48.892;9.544;2023-11-19T10:21:03;4.20;;;2.50;;
1467;SDS011;727;48.892;9.544;2023-11-19T10:23:30;6.50;;;2.70;;
1467;SDS011;727;48.892;9.544;2023-11-19T10:26:02;3.40;;;2.53;;
1467;SDS011;727;48.892;9.544;2023-11-19T10:28:39;3.70;;;3.40;;
1467;SDS011;727;48.892;9.544;2023-11-19T10:31:07;3.67;;;3.40;;
1467;SDS011;727;48.892;9.544;2023-11-19T10:33:34;3.80;;;3.50;;
1467;SDS011;727;48.892;9.544;2023-11-19T10:36:01;4.87;;;4.43;;
1467;SDS011;727;48.892;9.544;2023-11-19T10:38:27;6.60;;;5.30;;
1467;SDS011;727;48.892;9.544;2023-11-19T10:40:55;12.53;;;10.57;;
1467;SDS011;727;48.892;9.544;2023-11-19T10:43:22;9.40;;;8.50;;
1467;SDS011;727;48.892;9.544;2023-11-19T10:45:51;12.80;;;11.80;;
1467;SDS011;727;48.892;9.544;2023-11-19T10:48:18;8.70;;;8.00;;
1467;SDS011;727;48.892;9.544;2023-11-19T10:50:46;5.13;;;4.67;;
1467;SDS011;727;48.892;9.544;2023-11-19T10:53:19;2.90;;;2.27;;
1467;SDS011;727;48.892;9.544;2023-11-19T10:55:51;4.23;;;3.80;;
1467;SDS011;727;48.892;9.544;2023-11-19T10:58:20;5.67;;;4.07;;
1467;SDS011;727;48.892;9.544;2023-11-19T11:00:48;2.70;;;2.50;;
1467;SDS011;727;48.892;9.544;2023-11-19T11:03:20;2.70;;;2.50;;
1467;SDS011;727;48.892;9.544;2023-11-19T11:05:48;3.20;;;2.63;;
1467;SDS011;727;48.892;9.544;2023-11-19T11:08:16;3.00;;;2.33;;
1467;SDS011;727;48.892;9.544;2023-11-19T11:10:44;2.80;;;2.37;;
1467;SDS011;727;48.892;9.544;2023-11-19T11:13:13;2.70;;;2.50;;
1467;SDS011;727;48.892;9.544;2023-11-19T11:15:41;3.80;;;2.83;;
1467;SDS011;727;48.892;9.544;2023-11-19T11:18:09;5.13;;;3.47;;
1467;SDS011;727;48.892;9.544;2023-11-19T11:20:37;4.13;;;2.90;;
1467;SDS011;727;48.892;9.544;2023-11-19T11:23:14;2.20;;;2.00;;
1467;SDS011;727;48.892;9.544;2023-11-19T11:26:16;2.47;;;2.27;;
1467;SDS011;727;48.892;9.544;2023-11-19T11:28:58;3.87;;;3.47;;
1467;SDS011;727;48.892;9.544;2023-11-19T11:31:31;4.40;;;3.93;;
1467;SDS011;727;48.892;9.544;2023-11-19T11:34:14;9.53;;;4.50;;
1467;SDS011;727;48.892;9.544;2023-11-19T11:36:58;4.30;;;2.60;;
1467;SDS011;727;48.892;9.544;2023-11-19T11:39:34;3.90;;;1.30;;
1467;SDS011;727;48.892;9.544;2023-11-19T11:45:01;3.33;;;1.90;;
1467;SDS011;727;48.892;9.544;2023-11-19T11:50:48;6.53;;;2.70;;
1467;SDS011;727;48.892;9.544;2023-11-19T11:53:17;3.03;;;1.10;;
1467;SDS011;727;48.892;9.544;2023-11-19T11:58:32;8.33;;;2.40;;
1467;SDS011;727;48.892;9.544;2023-11-19T12:01:01;3.90;;;2.17;;
1467;SDS011;727;48.892;9.544;2023-11-19T12:03:32;6.77;;;3.30;;
1467;SDS011;727;48.892;9.544;2023-11-19T12:06:01;3.33;;;2.10;;
1467;SDS011;727;48.892;9.544;2023-11-19T12:08:28;4.77;;;2.50;;
1467;SDS011;727;48.892;9.544;2023-11-19T12:10:57;1.43;;;1.33;;
1467;SDS011;727;48.892;9.544;2023-11-19T12:13:24;6.03;;;2.27;;
1467;SDS011;727;48.892;9.544;2023-11-19T12:16:08;2.80;;;1.93;;
1467;SDS011;727;48.892;9.544;2023-11-19T12:18:36;2.43;;;1.60;;
1467;SDS011;727;48.892;9.544;2023-11-19T12:21:08;2.67;;;1.30;;
1467;SDS011;727;48.892;9.544;2023-11-19T12:23:44;3.90;;;2.60;;
1467;SDS011;727;48.892;9.544;2023-11-19T12:29:02;5.27;;;1.97;;
1467;SDS011;727;48.892;9.544;2023-11-19T12:31:31;1.87;;;1.37;;
1467;SDS011;727;48.892;9.544;2023-11-19T12:34:00;6.13;;;3.37;;
1467;SDS011;727;48.892;9.544;2023-11-19T12:36:32;5.07;;;2.70;;
1467;SDS011;727;48.892;9.544;2023-11-19T12:39:02;2.80;;;1.67;;
1467;SDS011;727;48.892;9.544;2023-11-19T12:41:29;4.60;;;1.50;;
1467;SDS011;727;48.892;9.544;2023-11-19T12:44:08;0.87;;;0.83;;
1467;SDS011;727;48.892;9.544;2023-11-19T12:46:36;1.00;;;0.83;;
1467;SDS011;727;48.892;9.544;2023-11-19T12:49:02;1.10;;;0.90;;
1467;SDS011;727;48.892;9.544;2023-11-19T12:51:31;2.10;;;0.87;;
1467;SDS011;727;48.892;9.544;2023-11-19T12:53:59;3.20;;;1.17;;
1467;SDS011;727;48.892;9.544;2023-11-19T12:56:25;2.40;;;1.40;;
1467;SDS011;727;48.892;9.544;2023-11-19T12:58:52;2.13;;;1.30;;
1467;SDS011;727;48.892;9.544;2023-11-19T13:01:19;2.30;;;1.60;;
1467;SDS011;727;48.892;9.544;2023-11-19T13:03:47;3.57;;;1.60;;
1467;SDS011;727;48.892;9.544;2023-11-19T13:06:16;4.63;;;1.67;;
1467;SDS011;727;48.892;9.544;2023-11-19T13:08:47;4.20;;;1.33;;
1467;SDS011;727;48.892;9.544;2023-11-19T13:11:29;3.27;;;1.70;;
1467;SDS011;727;48.892;9.544;2023-11-19T13:13:57;1.83;;;1.20;;
1467;SDS011;727;48.892;9.544;2023-11-19T13:16:25;1.40;;;1.10;;
1467;SDS011;727;48.892;9.544;2023-11-19T13:18:53;1.17;;;1.07;;
1467;SDS011;727;48.892;9.544;2023-11-19T13:21:20;3.40;;;1.00;;
1467;SDS011;727;48.892;9.544;2023-11-19T13:23:48;2.37;;;1.17;;
1467;SDS011;727;48.892;9.544;2023-11-19T13:26:15;2.47;;;1.77;;
1467;SDS011;727;48.892;9.544;2023-11-19T13:28:42;1.40;;;1.30;;
1467;SDS011;727;48.892;9.544;2023-11-19T13:31:09;1.80;;;0.97;;
1467;SDS011;727;48.892;9.544;2023-11-19T13:33:36;1.57;;;1.20;;
1467;SDS011;727;48.892;9.544;2023-11-19T13:36:03;3.07;;;2.07;;
1467;SDS011;727;48.892;9.544;2023-11-19T13:38:32;1.37;;;1.17;;
1467;SDS011;727;48.892;9.544;2023-11-19T13:41:00;1.00;;;0.90;;
1467;SDS011;727;48.892;9.544;2023-11-19T13:43:27;2.73;;;1.23;;
1467;SDS011;727;48.892;9.544;2023-11-19T13:45:54;3.90;;;1.33;;
1467;SDS011;727;48.892;9.544;2023-11-19T13:48:21;1.80;;;1.43;;
1467;SDS011;727;48.892;9.544;2023-11-19T13:50:48;2.17;;;1.80;;
1467;SDS011;727;48.892;9.544;2023-11-19T13:53:15;3.07;;;1.80;;
1467;SDS011;727;48.892;9.544;2023-11-19T13:55:41;4.77;;;1.80;;
1467;SDS011;727;48.892;9.544;2023-11-19T13:58:09;7.33;;;2.50;;
1467;SDS011;727;48.892;9.544;2023-11-19T14:00:36;1.77;;;1.67;;
1467;SDS011;727;48.892;9.544;2023-11-19T14:03:03;2.20;;;1.67;;
1467;SDS011;727;48.892;9.544;2023-11-19T14:05:30;1.33;;;1.23;;
1467;SDS011;727;48.892;9.544;2023-11-19T14:07:57;2.37;;;1.67;;
1467;SDS011;727;48.892;9.544;2023-11-19T14:10:24;1.80;;;1.57;;
1467;SDS011;727;48.892;9.544;2023-11-19T14:12:50;1.83;;;1.17;;
1467;SDS011;727;48.892;9.544;2023-11-19T14:15:18;3.10;;;1.33;;
1467;SDS011;727;48.892;9.544;2023-11-19T14:17:45;3.33;;;1.10;;
1467;SDS011;727;48.892;9.544;2023-11-19T14:20:12;1.30;;;1.20;;
1467;SDS011;727;48.892;9.544;2023-11-19T14:22:40;2.53;;;1.57;;
1467;SDS011;727;48.892;9.544;2023-11-19T14:25:08;2.63;;;1.60;;
1467;SDS011;727;48.892;9.544;2023-11-19T14:27:35;2.67;;;1.87;;
1467;SDS011;727;48.892;9.544;2023-11-19T14:30:04;2.80;;;2.17;;
1467;SDS011;727;48.892;9.544;2023-11-19T14:32:33;3.47;;;2.20;;
1467;SDS011;727;48.892;9.544;2023-11-19T14:34:59;2.70;;;1.90;;
1467;SDS011;727;48.892;9.544;2023-11-19T14:37:26;2.80;;;1.63;;
1467;SDS011;727;48.892;9.544;2023-11-19T14:39:53;2.30;;;1.80;;
1467;SDS011;727;48.892;9.544;2023-11-19T14:42:20;2.23;;;1.70;;
1467;SDS011;727;48.892;9.544;2023-11-19T14:44:47;1.77;;;1.60;;
1467;SDS011;727;48.892;9.544;2023-11-19T14:47:14;1.40;;;1.13;;
1467;SDS011;727;48.892;9.544;2023-11-19T14:49:42;1.77;;;1.17;;
1467;SDS011;727;48.892;9.544;2023-11-19T14:52:09;2.57;;;1.10;;
1467;SDS011;727;48.892;9.544;2023-11-19T14:54:36;1.20;;;1.10;;
1467;SDS011;727;48.892;9.544;2023-11-19T14:57:03;1.40;;;1.13;;
1467;SDS011;727;48.892;9.544;2023-11-19T14:59:31;2.63;;;1.13;;
1467;SDS011;727;48.892;9.544;2023-11-19T15:01:58;1.17;;;1.07;;
1467;SDS011;727;48.892;9.544;2023-11-19T15:04:25;1.10;;;0.93;;
1467;SDS011;727;48.892;9.544;2023-11-19T15:06:56;2.10;;;1.63;;
1467;SDS011;727;48.892;9.544;2023-11-19T15:09:22;3.57;;;1.40;;
1467;SDS011;727;48.892;9.544;2023-11-19T15:11:49;5.27;;;1.40;;
1467;SDS011;727;48.892;9.544;2023-11-19T15:14:16;1.93;;;1.10;;
1467;SDS011;727;48.892;9.544;2023-11-19T15:16:44;1.30;;;1.10;;
1467;SDS011;727;48.892;9.544;2023-11-19T15:19:11;1.10;;;0.80;;
1467;SDS011;727;48.892;9.544;2023-11-19T15:21:39;5.13;;;1.33;;
1467;SDS011;727;48.892;9.544;2023-11-19T15:24:08;3.57;;;1.00;;
1467;SDS011;727;48.892;9.544;2023-11-19T15:26:35;1.17;;;1.00;;
1467;SDS011;727;48.892;9.544;2023-11-19T15:29:02;1.80;;;1.10;;
1467;SDS011;727;48.892;9.544;2023-11-19T15:31:29;3.57;;;1.00;;
1467;SDS011;727;48.892;9.544;2023-11-19T15:33:56;2.33;;;1.03;;
1467;SDS011;727;48.892;9.544;2023-11-19T15:36:23;1.20;;;1.10;;
1467;SDS011;727;48.892;9.544;2023-11-19T15:38:50;1.93;;;1.50;;
1467;SDS011;727;48.892;9.544;2023-11-19T15:41:18;3.23;;;1.47;;